Time;durP1;ratioP1;P1;durP2;ratioP2;P2;SDS_P1;SDS_P2;PMS_P1;PMS_P2;Temp;Humidity;BMP_temperature;BMP_pressure;BME280_temperature;BME280_humidity;BME280_pressure;Samples;Min_cycle;Max_cycle;Signal;HPM_P1;HPM_P2
2021/09/14 00:04:09;;;;;;;7.43;4.97;;;14.60;99.90;;;;;;12426956;28;20181;-42
2021/09/14 00:10:25;;;;;;;10.80;5.18;;;14.50;99.90;;;;;;12433854;28;20042;-42
2021/09/14 00:16:27;;;;;;;6.27;4.20;;;14.40;99.90;;;;;;12429800;28;20129;-36
2021/09/14 00:22:30;;;;;;;7.90;4.88;;;14.40;99.90;;;;;;12427243;28;20077;-37
2021/09/14 00:28:32;;;;;;;7.05;4.70;;;14.40;99.90;;;;;;12426909;28;21361;-37
2021/09/14 00:34:34;;;;;;;8.77;4.93;;;14.20;99.90;;;;;;12429497;28;20061;-36
2021/09/14 00:40:38;;;;;;;10.93;4.20;;;14.10;99.90;;;;;;12426166;28;20056;-42
2021/09/14 00:46:42;;;;;;;8.43;5.55;;;14.20;99.90;;;;;;12425661;28;20103;-42
2021/09/14 00:52:44;;;;;;;8.00;5.35;;;14.10;99.90;;;;;;12429020;28;20099;-36
2021/09/14 00:58:48;;;;;;;8.35;5.15;;;14.10;99.90;;;;;;12429474;28;20069;-41
2021/09/14 01:04:49;;;;;;;7.38;4.53;;;14.10;99.90;;;;;;12430313;28;20054;-42
2021/09/14 01:10:52;;;;;;;8.45;5.05;;;14.00;99.90;;;;;;12430436;28;20487;-43
2021/09/14 01:16:54;;;;;;;8.48;5.43;;;13.90;99.90;;;;;;12430289;28;20058;-43
2021/09/14 01:22:57;;;;;;;10.40;5.85;;;13.80;99.90;;;;;;12425073;28;20157;-36
2021/09/14 01:30:10;;;;;;;9.30;5.78;;;13.80;99.90;;;;;;12424679;28;20143;-42
2021/09/14 01:35:35;;;;;;;8.73;5.80;;;13.70;99.90;;;;;;12428168;28;20074;-37
2021/09/14 01:41:38;;;;;;;;;;;13.80;99.90;;;;;;12426366;28;20115;-44
2021/09/14 01:47:49;;;;;;;12.07;6.47;;;13.80;99.90;;;;;;12430905;28;19930;-42
2021/09/14 01:54:05;;;;;;;10.07;6.63;;;13.80;99.90;;;;;;12427561;28;20050;-36
2021/09/14 02:00:19;;;;;;;;;;;13.80;99.90;;;;;;12428623;28;20115;-36
2021/09/14 02:06:43;;;;;;;10.18;6.78;;;13.70;99.90;;;;;;12427974;28;20021;-41
2021/09/14 02:38:29;;;;;;;13.85;7.20;;;13.60;99.90;;;;;;12425829;28;20184;-36
2021/09/14 03:03:09;;;;;;;10.80;7.70;;;13.40;99.90;;;;;;12424048;28;20053;-43
2021/09/14 03:09:11;;;;;;;12.52;6.47;;;13.30;99.90;;;;;;12422698;28;21045;-36
2021/09/14 03:15:13;;;;;;;9.93;6.18;;;13.40;99.90;;;;;;12419063;28;20050;-42
2021/09/14 03:21:16;;;;;;;12.07;6.82;;;13.30;99.90;;;;;;12424711;28;20084;-42
2021/09/14 03:27:18;;;;;;;11.95;7.18;;;13.20;99.90;;;;;;12424456;28;20046;-42
2021/09/14 03:33:21;;;;;;;11.00;8.00;;;13.20;99.90;;;;;;12416889;28;20053;-38
2021/09/14 03:39:23;;;;;;;11.98;7.38;;;13.20;99.90;;;;;;12423450;28;20053;-36
2021/09/14 03:45:25;;;;;;;12.80;8.60;;;13.10;99.90;;;;;;12425334;28;20601;-42
2021/09/14 03:51:27;;;;;;;12.65;8.05;;;13.10;99.90;;;;;;12421604;28;20141;-42
2021/09/14 03:57:29;;;;;;;12.35;6.88;;;13.10;99.90;;;;;;12424987;28;20057;-41
2021/09/14 04:09:36;;;;;;;13.07;6.70;;;13.20;99.90;;;;;;12421712;28;20482;-41
2021/09/14 04:15:38;;;;;;;14.05;7.55;;;13.10;99.90;;;;;;12402404;28;20187;-36
2021/09/14 04:21:40;;;;;;;10.00;6.97;;;13.00;99.90;;;;;;12423196;28;20049;-37
2021/09/14 04:27:42;;;;;;;15.75;7.95;;;13.00;99.90;;;;;;12424227;28;20886;-42
2021/09/14 04:33:44;;;;;;;12.05;7.50;;;12.90;99.90;;;;;;12430153;28;20054;-37
2021/09/14 04:39:52;;;;;;;10.13;5.60;;;12.90;99.90;;;;;;12431125;28;20153;-41
2021/09/14 04:46:00;;;;;;;9.40;6.13;;;12.90;99.90;;;;;;12430052;28;20054;-42
2021/09/14 04:52:06;;;;;;;15.00;6.90;;;12.90;99.90;;;;;;12431664;28;20134;-41
2021/09/14 04:58:12;;;;;;;10.20;6.35;;;12.80;99.90;;;;;;12431455;28;20100;-42
2021/09/14 05:04:15;;;;;;;10.53;6.73;;;12.60;99.90;;;;;;12427885;28;20047;-41
2021/09/14 05:10:17;;;;;;;10.80;6.68;;;12.70;99.90;;;;;;12427764;28;20305;-42
2021/09/14 05:16:24;;;;;;;14.13;8.38;;;12.80;99.90;;;;;;12431503;28;20081;-41
2021/09/14 05:22:37;;;;;;;13.73;7.88;;;12.80;99.90;;;;;;12408724;28;20145;-37
2021/09/14 05:28:52;;;;;;;8.60;5.40;;;12.70;99.90;;;;;;12427764;28;20492;-38
2021/09/14 05:35:00;;;;;;;10.40;6.43;;;12.80;99.90;;;;;;12406131;28;20050;-42
2021/09/14 05:41:10;;;;;;;10.75;6.90;;;12.80;99.90;;;;;;12397150;28;20531;-42
2021/09/14 05:47:24;;;;;;;12.60;7.45;;;12.80;99.90;;;;;;12427321;28;21045;-41
2021/09/14 05:53:39;;;;;;;13.75;7.82;;;12.80;99.90;;;;;;12416654;28;20057;-42
2021/09/14 05:59:53;;;;;;;12.00;6.70;;;12.80;99.90;;;;;;12425274;28;20099;-41
2021/09/14 06:06:05;;;;;;;10.30;6.00;;;12.90;99.90;;;;;;12421193;28;20057;-42
2021/09/14 06:12:18;;;;;;;10.48;7.22;;;13.10;99.90;;;;;;12428437;28;20041;-42
2021/09/14 06:18:33;;;;;;;10.35;6.60;;;13.10;99.90;;;;;;12427125;28;20049;-37
2021/09/14 06:24:48;;;;;;;11.70;6.72;;;12.90;99.90;;;;;;12421328;28;20049;-38
2021/09/14 06:31:03;;;;;;;9.57;6.55;;;13.00;99.90;;;;;;12428416;28;20050;-36
2021/09/14 06:37:18;;;;;;;9.20;6.45;;;12.90;99.90;;;;;;12431954;28;20108;-37
2021/09/14 06:43:30;;;;;;;;;;;13.00;99.90;;;;;;12417651;28;20140;-41
2021/09/14 06:49:46;;;;;;;9.60;6.57;;;13.10;99.90;;;;;;12428079;28;19929;-37
2021/09/14 06:56:13;;;;;;;9.35;7.00;;;13.30;99.90;;;;;;12426771;28;20526;-42
2021/09/14 07:02:24;;;;;;;8.80;6.18;;;13.50;99.90;;;;;;12426770;28;20054;-42
2021/09/14 07:08:42;;;;;;;10.95;7.28;;;13.50;99.90;;;;;;12430091;28;20050;-42
2021/09/14 07:14:59;;;;;;;9.17;6.83;;;13.70;99.90;;;;;;12415756;28;20531;-37
2021/09/14 07:21:08;;;;;;;9.93;6.50;;;13.70;99.90;;;;;;12430260;28;20073;-42
2021/09/14 07:27:19;;;;;;;11.93;6.97;;;13.80;99.90;;;;;;12427013;28;20053;-42
2021/09/14 07:33:41;;;;;;;13.73;7.60;;;14.00;99.90;;;;;;12412062;28;20234;-42
2021/09/14 07:39:53;;;;;;;12.52;8.45;;;14.10;99.90;;;;;;12427015;28;20056;-42
2021/09/14 07:46:03;;;;;;;11.45;7.68;;;14.30;99.90;;;;;;12396481;28;20127;-42
2021/09/14 07:52:08;;;;;;;10.25;7.72;;;14.60;99.90;;;;;;12425074;28;20058;-42
2021/09/14 07:58:19;;;;;;;11.13;7.88;;;14.80;99.90;;;;;;12422295;28;20182;-37
2021/09/14 08:04:31;;;;;;;9.70;6.85;;;15.00;99.90;;;;;;12422589;28;20149;-42
2021/09/14 08:10:42;;;;;;;10.75;6.72;;;15.10;99.90;;;;;;12434602;28;20054;-37
2021/09/14 08:17:14;;;;;;;11.50;9.43;;;15.30;99.90;;;;;;12437146;28;20058;-46
2021/09/14 08:23:29;;;;;;;14.70;9.07;;;15.60;99.90;;;;;;12423613;28;20054;-38
2021/09/14 08:29:45;;;;;;;10.88;8.32;;;16.00;99.90;;;;;;12431764;28;20057;-37
2021/09/14 08:35:56;;;;;;;11.02;6.78;;;16.60;99.90;;;;;;12429412;28;20065;-42
2021/09/14 08:42:11;;;;;;;9.77;7.35;;;16.90;99.90;;;;;;12432453;28;20057;-42
2021/09/14 08:48:30;;;;;;;11.02;6.82;;;17.00;99.90;;;;;;12433885;28;20046;-42
2021/09/14 08:54:46;;;;;;;9.05;6.82;;;17.30;99.90;;;;;;12421252;28;20077;-37
2021/09/14 09:01:15;;;;;;;10.63;6.63;;;17.50;99.90;;;;;;12426292;28;20526;-37
2021/09/14 09:07:37;;;;;;;7.93;7.10;;;17.60;99.90;;;;;;12431402;28;20192;-39
2021/09/14 09:13:55;;;;;;;8.77;6.70;;;17.90;99.90;;;;;;12401246;28;20049;-37
2021/09/14 09:20:07;;;;;;;9.02;6.60;;;18.10;99.90;;;;;;12428201;28;20062;-37
2021/09/14 09:26:30;;;;;;;8.35;5.88;;;18.50;99.90;;;;;;12431185;28;20045;-42
2021/09/14 09:32:51;;;;;;;9.23;6.25;;;18.90;99.90;;;;;;12429523;28;20061;-38
2021/09/14 09:39:05;;;;;;;12.70;6.47;;;19.00;99.90;;;;;;12427531;28;20057;-42
2021/09/14 09:45:19;;;;;;;8.23;5.93;;;19.10;99.90;;;;;;12415598;28;20103;-38
2021/09/14 09:51:41;;;;;;;9.82;6.07;;;19.70;99.90;;;;;;12419759;28;20103;-38
2021/09/14 09:57:54;;;;;;;8.52;5.05;;;19.50;99.90;;;;;;12426253;28;20474;-42
2021/09/14 10:04:21;;;;;;;7.85;5.55;;;19.30;99.90;;;;;;12417682;28;20065;-42
2021/09/14 10:10:35;;;;;;;7.82;5.28;;;19.40;99.90;;;;;;12421238;28;20046;-43
2021/09/14 10:16:49;;;;;;;8.25;5.20;;;19.30;99.90;;;;;;12425828;28;20054;-44
2021/09/14 10:23:23;;;;;;;8.02;5.40;;;19.40;99.90;;;;;;12416401;28;20054;-42
2021/09/14 10:29:31;;;;;;;6.50;5.40;;;19.80;99.90;;;;;;12425928;28;20053;-39
2021/09/14 10:35:39;;;;;;;8.20;5.72;;;20.30;99.90;;;;;;12422838;28;20069;-43
2021/09/14 10:41:41;;;;;;;10.32;5.70;;;20.30;99.90;;;;;;12424145;28;20050;-44
2021/09/14 10:47:48;;;;;;;9.23;5.43;;;20.50;99.90;;;;;;12423440;28;20078;-39
2021/09/14 10:53:58;;;;;;;8.30;4.85;;;20.60;99.90;;;;;;12422566;28;20056;-39
2021/09/14 11:00:01;;;;;;;7.80;5.18;;;20.50;99.90;;;;;;12421379;28;20057;-42
2021/09/14 11:06:03;;;;;;;6.77;4.83;;;20.40;99.90;;;;;;12426270;28;20141;-39
2021/09/14 11:12:05;;;;;;;6.45;4.45;;;20.20;99.90;;;;;;12422258;28;20157;-37
2021/09/14 11:18:07;;;;;;;7.95;4.47;;;20.40;99.90;;;;;;12426535;28;20141;-38
2021/09/14 11:24:09;;;;;;;6.20;4.50;;;20.80;99.90;;;;;;12422842;28;20526;-38
2021/09/14 11:30:13;;;;;;;6.70;4.38;;;21.20;99.90;;;;;;12421862;28;20050;-43
2021/09/14 11:36:15;;;;;;;5.78;3.38;;;21.40;99.90;;;;;;12425572;28;20137;-43
2021/09/14 11:42:17;;;;;;;5.85;4.07;;;21.60;99.90;;;;;;12431458;28;20054;-43
2021/09/14 11:48:27;;;;;;;5.63;4.20;;;21.70;99.90;;;;;;12430055;28;20049;-43
2021/09/14 11:54:34;;;;;;;5.25;3.45;;;21.90;99.90;;;;;;12406051;28;20132;-43
2021/09/14 12:00:42;;;;;;;4.90;3.85;;;22.20;99.90;;;;;;12430626;28;20096;-39
2021/09/14 12:06:54;;;;;;;7.72;3.58;;;21.70;99.90;;;;;;12427046;28;20052;-42
2021/09/14 12:12:56;;;;;;;6.38;3.55;;;21.70;99.90;;;;;;12427837;28;20184;-39
2021/09/14 12:19:01;;;;;;;7.30;3.60;;;22.00;99.90;;;;;;12429677;28;20057;-44
2021/09/14 12:25:04;;;;;;;6.15;3.72;;;22.30;99.90;;;;;;12428576;28;20103;-43
2021/09/14 12:31:06;;;;;;;7.03;3.60;;;22.50;99.90;;;;;;12425989;28;20081;-38
2021/09/14 12:37:08;;;;;;;7.68;3.90;;;22.80;99.90;;;;;;12429708;28;20049;-38
2021/09/14 12:43:10;;;;;;;8.93;3.65;;;22.50;99.90;;;;;;12428941;28;20046;-41
2021/09/14 12:49:12;;;;;;;7.30;3.58;;;22.60;99.90;;;;;;12423180;28;20057;-37
2021/09/14 12:55:15;;;;;;;6.73;3.50;;;22.90;99.90;;;;;;12424570;28;20466;-38
2021/09/14 13:01:17;;;;;;;4.57;3.13;;;23.20;99.90;;;;;;12426747;28;20081;-39
2021/09/14 13:07:19;;;;;;;6.33;3.37;;;23.60;99.90;;;;;;12427947;28;20101;-38
2021/09/14 13:19:41;;;;;;;5.57;3.20;;;23.40;99.90;;;;;;12428258;28;20046;-39
2021/09/14 13:25:43;;;;;;;5.07;3.53;;;23.30;99.90;;;;;;12428098;28;20042;-42
2021/09/14 13:31:46;;;;;;;8.35;3.70;;;23.70;99.90;;;;;;12422070;28;20479;-44
2021/09/14 13:37:47;;;;;;;6.00;3.33;;;23.70;99.90;;;;;;12426234;28;20488;-38
2021/09/14 13:43:51;;;;;;;6.03;3.13;;;23.70;99.90;;;;;;12426190;28;20115;-39
2021/09/14 13:49:54;;;;;;;4.72;2.67;;;23.60;99.90;;;;;;12426936;28;20160;-39
2021/09/14 13:55:56;;;;;;;6.05;3.38;;;23.50;99.90;;;;;;12421311;28;20566;-39
2021/09/14 14:01:58;;;;;;;5.68;3.30;;;22.80;99.90;;;;;;12422196;28;20496;-44
2021/09/14 14:08:00;;;;;;;7.90;3.57;;;22.40;99.90;;;;;;12420622;28;20061;-43
2021/09/14 14:14:03;;;;;;;5.45;3.22;;;22.40;99.90;;;;;;12421306;28;20297;-36
2021/09/14 14:20:06;;;;;;;5.68;3.72;;;22.30;99.90;;;;;;12423835;28;20173;-43
2021/09/14 14:26:08;;;;;;;5.82;3.20;;;22.30;99.90;;;;;;12425793;28;20058;-42
2021/09/14 14:32:10;;;;;;;4.63;3.00;;;22.30;99.90;;;;;;12420554;28;20498;-37
2021/09/14 14:38:13;;;;;;;7.00;3.47;;;22.30;99.90;;;;;;12423889;28;20488;-43
2021/09/14 14:44:15;;;;;;;7.63;3.35;;;22.30;99.90;;;;;;12419409;28;20049;-38
2021/09/14 14:50:22;;;;;;;5.00;3.25;;;22.40;99.90;;;;;;12424442;28;20469;-43
2021/09/14 14:56:24;;;;;;;4.40;3.20;;;22.80;99.90;;;;;;12420404;28;20049;-44
2021/09/14 15:02:27;;;;;;;6.03;3.53;;;23.30;99.90;;;;;;12420013;28;20103;-42
2021/09/14 15:08:31;;;;;;;7.45;3.40;;;23.40;99.90;;;;;;12420807;28;20092;-42
2021/09/14 15:14:33;;;;;;;6.68;3.40;;;23.30;99.90;;;;;;12418695;28;20124;-37
2021/09/14 15:20:35;;;;;;;5.13;2.97;;;23.90;99.90;;;;;;12422082;28;20133;-42
2021/09/14 15:26:38;;;;;;;4.57;3.08;;;24.40;99.90;;;;;;12405044;28;20476;-41
2021/09/14 15:32:41;;;;;;;5.45;3.10;;;24.40;99.90;;;;;;12412311;28;20053;-43
2021/09/14 15:38:43;;;;;;;4.68;2.90;;;24.10;99.90;;;;;;12420589;28;20046;-42
2021/09/14 15:44:48;;;;;;;4.68;2.95;;;23.70;99.90;;;;;;12416253;28;20108;-36
2021/09/14 15:50:55;;;;;;;4.30;2.83;;;23.10;99.90;;;;;;12423512;28;20064;-36
2021/09/14 15:57:04;;;;;;;5.85;3.30;;;22.90;99.90;;;;;;12420246;28;20050;-35
2021/09/14 16:03:10;;;;;;;4.47;3.20;;;22.50;99.90;;;;;;12422337;28;20058;-41
2021/09/14 16:09:15;;;;;;;5.43;3.95;;;22.10;99.90;;;;;;12420212;28;20173;-41
2021/09/14 16:15:22;;;;;;;;;;;21.90;99.90;;;;;;12424969;28;20956;-38
2021/09/14 16:21:46;;;;;;;7.53;3.67;;;21.70;99.90;;;;;;12401644;28;20024;-38
2021/09/14 16:28:03;;;;;;;6.75;3.78;;;21.60;99.90;;;;;;12432047;28;20046;-38
2021/09/14 16:34:22;;;;;;;5.95;3.80;;;21.30;99.90;;;;;;12419983;28;20075;-38
2021/09/14 16:40:41;;;;;;;7.43;4.10;;;21.20;99.90;;;;;;12419677;28;20050;-44
2021/09/14 16:46:53;;;;;;;7.40;4.22;;;21.00;99.90;;;;;;12430372;28;20046;-37
2021/09/14 16:53:06;;;;;;;10.05;4.32;;;20.90;99.90;;;;;;12391764;28;20092;-42
2021/09/14 16:59:22;;;;;;;8.85;4.50;;;20.80;99.90;;;;;;12430638;28;20197;-38
2021/09/14 17:05:30;;;;;;;7.45;4.65;;;20.70;99.90;;;;;;12410699;28;20973;-37
2021/09/14 17:11:43;;;;;;;8.93;5.03;;;20.60;99.90;;;;;;12417756;28;20099;-38
2021/09/14 17:17:57;;;;;;;8.05;4.88;;;20.50;99.90;;;;;;12430720;28;21100;-42
2021/09/14 17:24:03;;;;;;;7.55;5.38;;;20.50;99.90;;;;;;12425283;28;20535;-42
2021/09/14 17:30:10;;;;;;;8.38;5.93;;;20.30;99.90;;;;;;12428270;28;20095;-42
2021/09/14 17:36:19;;;;;;;6.03;5.13;;;20.20;99.90;;;;;;12393263;28;20050;-38
2021/09/14 17:42:24;;;;;;;6.30;5.70;;;20.20;99.90;;;;;;12430831;28;20056;-44
2021/09/14 17:48:31;;;;;;;8.57;6.20;;;20.00;99.90;;;;;;12418446;28;20482;-38
2021/09/14 17:54:37;;;;;;;8.40;5.82;;;19.90;99.90;;;;;;12429867;28;20133;-39
2021/09/14 18:00:48;;;;;;;10.52;6.68;;;19.80;99.90;;;;;;12427099;28;20096;-43
2021/09/14 18:06:59;;;;;;;8.52;5.95;;;19.80;99.90;;;;;;12413146;28;20049;-38
2021/09/14 18:13:12;;;;;;;6.80;5.65;;;19.80;99.90;;;;;;12429446;28;20054;-38
2021/09/14 18:19:28;;;;;;;9.10;6.43;;;19.80;99.90;;;;;;12423824;28;20077;-43
2021/09/14 18:25:40;;;;;;;10.27;6.05;;;19.80;99.90;;;;;;12423263;28;20057;-43
2021/09/14 18:32:02;;;;;;;6.38;5.72;;;19.70;99.90;;;;;;12426474;28;20091;-42
2021/09/14 18:38:13;;;;;;;8.95;5.97;;;19.70;99.90;;;;;;12428189;28;20076;-39
2021/09/14 18:44:19;;;;;;;8.27;6.70;;;19.50;99.90;;;;;;12421616;28;20046;-39
2021/09/14 18:50:35;;;;;;;10.45;6.85;;;19.40;99.90;;;;;;12422900;28;20057;-38
2021/09/14 18:56:39;;;;;;;7.90;6.70;;;19.50;99.90;;;;;;12428273;28;20113;-38
2021/09/14 19:02:48;;;;;;;9.23;6.53;;;19.50;99.90;;;;;;12426378;28;20041;-43
2021/09/14 19:09:00;;;;;;;8.05;6.20;;;19.50;99.90;;;;;;12426449;28;20060;-38
2021/09/14 19:15:08;;;;;;;11.43;6.47;;;19.40;99.90;;;;;;12423693;28;20095;-38
2021/09/14 19:21:19;;;;;;;9.77;6.53;;;19.40;99.90;;;;;;12429543;28;20058;-42
2021/09/14 19:27:26;;;;;;;;;;;19.40;99.90;;;;;;12428192;28;21420;-38
2021/09/14 19:33:32;;;;;;;9.93;6.63;;;19.40;99.90;;;;;;12423227;28;19933;-44
2021/09/14 19:39:41;;;;;;;8.38;5.80;;;19.40;99.90;;;;;;12424061;28;20196;-37
2021/09/14 19:45:47;;;;;;;7.32;5.50;;;19.40;99.90;;;;;;12424388;28;20054;-37
2021/09/14 19:51:54;;;;;;;7.07;6.05;;;19.40;99.90;;;;;;12406421;28;20073;-43
2021/09/14 19:57:58;;;;;;;;;;;19.40;99.90;;;;;;12432127;28;20041;-37
2021/09/14 20:04:05;;;;;;;9.73;6.05;;;19.40;99.90;;;;;;12382307;28;20265;-37
2021/09/14 20:10:12;;;;;;;9.27;5.97;;;19.40;99.90;;;;;;12389552;28;20480;-38
2021/09/14 20:16:34;;;;;;;9.52;6.28;;;19.50;99.90;;;;;;12385610;28;20516;-37
2021/09/14 20:22:54;;;;;;;9.52;5.85;;;19.50;99.90;;;;;;12381722;28;20060;-42
2021/09/14 20:29:10;;;;;;;6.65;5.95;;;19.50;99.90;;;;;;12379982;28;20050;-37
2021/09/14 20:35:29;;;;;;;7.53;5.72;;;19.70;99.90;;;;;;12375099;28;20054;-42
2021/09/14 20:42:02;;;;;;;8.35;5.93;;;19.90;99.90;;;;;;12382566;28;20931;-42
2021/09/14 20:48:27;;;;;;;7.20;5.70;;;20.00;99.90;;;;;;12382550;28;20085;-37
2021/09/14 20:56:04;;;;;;;9.07;5.78;;;20.10;99.90;;;;;;12382036;28;20324;-37
2021/09/14 21:09:06;;;;;;;5.85;4.82;;;20.10;99.90;;;;;;12425812;28;20562;-37
2021/09/14 21:15:28;;;;;;;6.88;5.55;;;20.10;99.90;;;;;;12421248;28;20144;-37
2021/09/14 21:22:21;;;;;;;11.07;6.07;;;20.10;99.90;;;;;;12414374;28;20061;-43
2021/09/14 21:29:00;;;;;;;8.82;5.90;;;20.00;99.90;;;;;;12428683;28;20052;-37
2021/09/14 21:35:15;;;;;;;9.35;5.60;;;20.00;99.90;;;;;;12425157;28;20553;-42
2021/09/14 21:41:28;;;;;;;6.30;5.28;;;20.00;99.90;;;;;;12417502;28;20046;-37
2021/09/14 21:47:38;;;;;;;6.57;5.30;;;20.00;99.90;;;;;;12427519;28;20596;-41
2021/09/14 21:54:10;;;;;;;6.97;5.28;;;20.00;99.90;;;;;;12425147;28;20041;-42
2021/09/14 22:00:43;;;;;;;8.27;5.00;;;19.90;99.90;;;;;;12423955;28;21082;-37
2021/09/14 22:06:57;;;;;;;9.93;5.57;;;20.00;99.90;;;;;;12424454;28;20137;-42
2021/09/14 22:13:09;;;;;;;8.02;5.28;;;20.00;99.90;;;;;;12425376;28;20049;-37
2021/09/14 22:19:20;;;;;;;8.85;4.95;;;20.00;99.90;;;;;;12421553;28;20054;-37
2021/09/14 22:25:45;;;;;;;5.75;4.93;;;20.00;99.90;;;;;;12421273;28;20125;-41
2021/09/14 22:32:07;;;;;;;5.90;4.70;;;19.90;99.90;;;;;;12425998;28;20103;-42
2021/09/14 22:38:18;;;;;;;7.28;5.18;;;20.00;99.90;;;;;;12426018;28;20062;-42
2021/09/14 22:45:10;;;;;;;6.82;4.75;;;20.00;99.90;;;;;;12413309;28;20058;-38
2021/09/14 22:52:17;;;;;;;9.00;4.47;;;20.00;99.90;;;;;;12382879;28;20050;-37
2021/09/14 22:58:28;;;;;;;6.43;4.57;;;20.00;99.90;;;;;;12316618;28;20066;-42
2021/09/14 23:04:44;;;;;;;6.82;5.07;;;20.10;99.90;;;;;;12393140;28;20045;-42
2021/09/14 23:11:06;;;;;;;7.00;4.82;;;20.00;99.90;;;;;;12416310;28;20078;-42
2021/09/14 23:17:47;;;;;;;6.50;4.82;;;20.00;99.90;;;;;;12395705;28;20503;-37
2021/09/14 23:24:41;;;;;;;;;;;;;;;;;;;;;
2021/09/14 23:30:49;;;;;;;7.65;4.45;;;19.80;99.90;;;;;;12416699;28;20569;-38
2021/09/14 23:37:13;;;;;;;7.50;4.43;;;19.80;99.90;;;;;;12437268;28;20051;-37
2021/09/14 23:43:48;;;;;;;7.65;4.93;;;19.80;99.90;;;;;;12434631;28;20050;-42
2021/09/14 23:50:01;;;;;;;7.20;4.40;;;19.70;99.90;;;;;;12429823;28;20049;-42
2021/09/14 23:56:17;;;;;;;9.18;5.07;;;19.70;99.90;;;;;;12474804;28;20502;-37
